sensor_id;sensor_type;location;lat;lon;timestamp;temperature;humidity
57576;DHT22;43412;-33.800;150.804;2022-12-10T00:01:42;24.70;81.80
57576;DHT22;43412;-33.800;150.804;2022-12-10T00:04:09;24.80;82.10
57576;DHT22;43412;-33.800;150.804;2022-12-10T00:06:36;24.90;81.70
57576;DHT22;43412;-33.800;150.804;2022-12-10T00:09:04;24.80;80.20
57576;DHT22;43412;-33.800;150.804;2022-12-10T00:11:32;24.60;80.20
57576;DHT22;43412;-33.800;150.804;2022-12-10T00:13:59;24.50;80.70
57576;DHT22;43412;-33.800;150.804;2022-12-10T00:16:26;24.30;80.80
57576;DHT22;43412;-33.800;150.804;2022-12-10T00:18:54;24.30;81.60
57576;DHT22;43412;-33.800;150.804;2022-12-10T00:21:21;24.50;81.80
57576;DHT22;43412;-33.800;150.804;2022-12-10T00:23:48;25.30;82.60
57576;DHT22;43412;-33.800;150.804;2022-12-10T00:26:16;26.10;80.80
57576;DHT22;43412;-33.800;150.804;2022-12-10T00:28:44;26.90;78.20
57576;DHT22;43412;-33.800;150.804;2022-12-10T00:31:15;27.40;78.10
57576;DHT22;43412;-33.800;150.804;2022-12-10T00:33:42;27.80;77.10
57576;DHT22;43412;-33.800;150.804;2022-12-10T00:36:11;28.30;75.40
57576;DHT22;43412;-33.800;150.804;2022-12-10T00:38:38;28.20;76.10
57576;DHT22;43412;-33.800;150.804;2022-12-10T00:41:06;27.50;75.10
57576;DHT22;43412;-33.800;150.804;2022-12-10T00:43:33;27.10;74.70
57576;DHT22;43412;-33.800;150.804;2022-12-10T00:46:00;26.40;75.80
57576;DHT22;43412;-33.800;150.804;2022-12-10T00:48:27;25.70;76.40
57576;DHT22;43412;-33.800;150.804;2022-12-10T00:51:04;25.20;77.10
57576;DHT22;43412;-33.800;150.804;2022-12-10T00:53:32;24.70;78.90
57576;DHT22;43412;-33.800;150.804;2022-12-10T00:55:59;24.60;79.40
57576;DHT22;43412;-33.800;150.804;2022-12-10T00:58:26;24.70;79.90
57576;DHT22;43412;-33.800;150.804;2022-12-10T01:00:54;24.60;79.40
57576;DHT22;43412;-33.800;150.804;2022-12-10T01:03:20;24.40;79.50
57576;DHT22;43412;-33.800;150.804;2022-12-10T01:05:47;24.20;79.20
57576;DHT22;43412;-33.800;150.804;2022-12-10T01:08:14;23.90;79.90
57576;DHT22;43412;-33.800;150.804;2022-12-10T01:10:40;23.70;80.20
57576;DHT22;43412;-33.800;150.804;2022-12-10T01:13:07;23.70;81.30
57576;DHT22;43412;-33.800;150.804;2022-12-10T01:15:36;23.80;80.90
57576;DHT22;43412;-33.800;150.804;2022-12-10T01:18:03;23.80;80.50
57576;DHT22;43412;-33.800;150.804;2022-12-10T01:20:33;23.80;79.50
57576;DHT22;43412;-33.800;150.804;2022-12-10T01:23:00;23.80;80.50
57576;DHT22;43412;-33.800;150.804;2022-12-10T01:25:27;24.20;80.40
57576;DHT22;43412;-33.800;150.804;2022-12-10T01:27:54;25.00;79.00
57576;DHT22;43412;-33.800;150.804;2022-12-10T01:30:20;25.40;79.30
57576;DHT22;43412;-33.800;150.804;2022-12-10T01:32:47;25.70;79.00
57576;DHT22;43412;-33.800;150.804;2022-12-10T01:35:14;26.20;78.20
57576;DHT22;43412;-33.800;150.804;2022-12-10T01:37:40;26.50;77.70
57576;DHT22;43412;-33.800;150.804;2022-12-10T01:40:07;26.50;77.80
57576;DHT22;43412;-33.800;150.804;2022-12-10T01:42:34;26.50;75.90
57576;DHT22;43412;-33.800;150.804;2022-12-10T01:45:03;26.20;76.80
57576;DHT22;43412;-33.800;150.804;2022-12-10T01:47:30;26.20;77.30
57576;DHT22;43412;-33.800;150.804;2022-12-10T01:49:57;26.20;77.70
57576;DHT22;43412;-33.800;150.804;2022-12-10T01:52:24;26.30;77.70
57576;DHT22;43412;-33.800;150.804;2022-12-10T01:54:51;26.30;77.10
57576;DHT22;43412;-33.800;150.804;2022-12-10T01:57:22;26.20;77.20
57576;DHT22;43412;-33.800;150.804;2022-12-10T01:59:51;26.00;77.40
57576;DHT22;43412;-33.800;150.804;2022-12-10T02:07:26;26.20;80.20
57576;DHT22;43412;-33.800;150.804;2022-12-10T02:10:02;26.80;77.30
57576;DHT22;43412;-33.800;150.804;2022-12-10T02:17:38;27.60;75.00
57576;DHT22;43412;-33.800;150.804;2022-12-10T02:20:07;27.30;75.80
57576;DHT22;43412;-33.800;150.804;2022-12-10T02:22:39;27.00;75.40
57576;DHT22;43412;-33.800;150.804;2022-12-10T02:25:07;26.50;75.80
57576;DHT22;43412;-33.800;150.804;2022-12-10T02:27:44;26.10;76.90
57576;DHT22;43412;-33.800;150.804;2022-12-10T02:30:12;25.80;77.30
57576;DHT22;43412;-33.800;150.804;2022-12-10T02:32:40;25.50;78.40
57576;DHT22;43412;-33.800;150.804;2022-12-10T02:35:10;25.20;78.10
57576;DHT22;43412;-33.800;150.804;2022-12-10T02:37:39;25.00;78.40
57576;DHT22;43412;-33.800;150.804;2022-12-10T02:40:08;24.90;78.70
57576;DHT22;43412;-33.800;150.804;2022-12-10T02:42:38;24.80;79.70
57576;DHT22;43412;-33.800;150.804;2022-12-10T02:45:06;24.60;80.60
57576;DHT22;43412;-33.800;150.804;2022-12-10T02:47:33;24.60;80.90
57576;DHT22;43412;-33.800;150.804;2022-12-10T02:50:00;24.60;80.80
57576;DHT22;43412;-33.800;150.804;2022-12-10T02:52:27;24.50;81.10
57576;DHT22;43412;-33.800;150.804;2022-12-10T02:54:54;24.30;81.50
57576;DHT22;43412;-33.800;150.804;2022-12-10T02:59:58;24.10;81.60
57576;DHT22;43412;-33.800;150.804;2022-12-10T03:02:34;23.90;81.90
57576;DHT22;43412;-33.800;150.804;2022-12-10T03:07:43;24.10;82.70
57576;DHT22;43412;-33.800;150.804;2022-12-10T03:10:55;24.20;82.50
57576;DHT22;43412;-33.800;150.804;2022-12-10T03:13:03;24.20;82.10
57576;DHT22;43412;-33.800;150.804;2022-12-10T03:15:33;24.40;81.80
57576;DHT22;43412;-33.800;150.804;2022-12-10T03:18:04;24.80;81.80
57576;DHT22;43412;-33.800;150.804;2022-12-10T03:20:32;25.00;80.60
57576;DHT22;43412;-33.800;150.804;2022-12-10T03:22:59;25.00;80.80
57576;DHT22;43412;-33.800;150.804;2022-12-10T03:25:28;25.10;80.70
57576;DHT22;43412;-33.800;150.804;2022-12-10T03:27:56;25.40;79.40
57576;DHT22;43412;-33.800;150.804;2022-12-10T03:30:23;25.30;79.70
57576;DHT22;43412;-33.800;150.804;2022-12-10T03:32:50;25.30;80.40
57576;DHT22;43412;-33.800;150.804;2022-12-10T03:35:17;25.40;80.40
57576;DHT22;43412;-33.800;150.804;2022-12-10T03:37:45;25.80;80.20
57576;DHT22;43412;-33.800;150.804;2022-12-10T03:40:12;26.60;78.30
57576;DHT22;43412;-33.800;150.804;2022-12-10T03:42:39;27.10;77.70
57576;DHT22;43412;-33.800;150.804;2022-12-10T03:45:06;26.90;76.60
57576;DHT22;43412;-33.800;150.804;2022-12-10T03:47:33;26.60;77.60
57576;DHT22;43412;-33.800;150.804;2022-12-10T03:50:00;26.30;77.80
57576;DHT22;43412;-33.800;150.804;2022-12-10T03:52:26;26.00;78.20
57576;DHT22;43412;-33.800;150.804;2022-12-10T03:54:53;25.80;78.50
57576;DHT22;43412;-33.800;150.804;2022-12-10T03:57:20;26.00;78.80
57576;DHT22;43412;-33.800;150.804;2022-12-10T03:59:47;26.40;79.80
57576;DHT22;43412;-33.800;150.804;2022-12-10T04:02:13;26.50;78.00
57576;DHT22;43412;-33.800;150.804;2022-12-10T04:04:40;26.30;77.80
57576;DHT22;43412;-33.800;150.804;2022-12-10T04:07:07;26.10;79.10
57576;DHT22;43412;-33.800;150.804;2022-12-10T04:09:34;25.80;79.10
57576;DHT22;43412;-33.800;150.804;2022-12-10T04:12:00;25.70;79.10
57576;DHT22;43412;-33.800;150.804;2022-12-10T04:14:27;25.80;79.50
57576;DHT22;43412;-33.800;150.804;2022-12-10T04:17:12;25.90;79.50
57576;DHT22;43412;-33.800;150.804;2022-12-10T04:19:39;26.30;79.40
57576;DHT22;43412;-33.800;150.804;2022-12-10T04:22:06;26.60;77.80
57576;DHT22;43412;-33.800;150.804;2022-12-10T04:24:50;26.90;77.70
57576;DHT22;43412;-33.800;150.804;2022-12-10T04:27:52;27.00;76.60
57576;DHT22;43412;-33.800;150.804;2022-12-10T04:30:19;26.90;77.60
57576;DHT22;43412;-33.800;150.804;2022-12-10T04:32:45;26.70;77.30
57576;DHT22;43412;-33.800;150.804;2022-12-10T04:35:12;26.50;77.40
57576;DHT22;43412;-33.800;150.804;2022-12-10T04:37:39;26.30;76.90
57576;DHT22;43412;-33.800;150.804;2022-12-10T04:40:06;26.00;78.00
57576;DHT22;43412;-33.800;150.804;2022-12-10T04:42:33;25.80;78.10
57576;DHT22;43412;-33.800;150.804;2022-12-10T04:44:59;26.00;77.70
57576;DHT22;43412;-33.800;150.804;2022-12-10T04:47:26;26.10;77.00
57576;DHT22;43412;-33.800;150.804;2022-12-10T04:49:54;26.20;77.50
57576;DHT22;43412;-33.800;150.804;2022-12-10T04:52:21;26.40;77.30
57576;DHT22;43412;-33.800;150.804;2022-12-10T04:54:47;26.60;76.70
57576;DHT22;43412;-33.800;150.804;2022-12-10T04:57:14;26.60;77.70
57576;DHT22;43412;-33.800;150.804;2022-12-10T04:59:41;26.80;77.90
57576;DHT22;43412;-33.800;150.804;2022-12-10T05:02:08;26.90;79.10
57576;DHT22;43412;-33.800;150.804;2022-12-10T05:04:34;27.10;78.20
57576;DHT22;43412;-33.800;150.804;2022-12-10T05:07:01;27.10;77.90
57576;DHT22;43412;-33.800;150.804;2022-12-10T05:09:28;26.80;78.80
57576;DHT22;43412;-33.800;150.804;2022-12-10T05:11:55;26.60;78.60
57576;DHT22;43412;-33.800;150.804;2022-12-10T05:14:21;26.60;78.70
57576;DHT22;43412;-33.800;150.804;2022-12-10T05:16:49;26.50;78.50
57576;DHT22;43412;-33.800;150.804;2022-12-10T05:19:16;26.50;79.00
57576;DHT22;43412;-33.800;150.804;2022-12-10T05:21:45;26.60;79.50
57576;DHT22;43412;-33.800;150.804;2022-12-10T05:24:29;26.30;78.70
57576;DHT22;43412;-33.800;150.804;2022-12-10T05:26:56;25.80;79.90
57576;DHT22;43412;-33.800;150.804;2022-12-10T05:29:23;25.30;80.00
57576;DHT22;43412;-33.800;150.804;2022-12-10T05:31:50;24.80;81.10
57576;DHT22;43412;-33.800;150.804;2022-12-10T05:34:16;24.70;81.50
57576;DHT22;43412;-33.800;150.804;2022-12-10T05:36:43;24.70;81.90
57576;DHT22;43412;-33.800;150.804;2022-12-10T05:39:10;24.60;81.80
57576;DHT22;43412;-33.800;150.804;2022-12-10T05:41:37;24.50;82.40
57576;DHT22;43412;-33.800;150.804;2022-12-10T05:44:05;24.50;82.30
57576;DHT22;43412;-33.800;150.804;2022-12-10T05:46:32;24.40;82.60
57576;DHT22;43412;-33.800;150.804;2022-12-10T05:49:00;24.50;82.90
57576;DHT22;43412;-33.800;150.804;2022-12-10T05:51:28;24.70;82.70
57576;DHT22;43412;-33.800;150.804;2022-12-10T05:53:56;24.90;83.30
57576;DHT22;43412;-33.800;150.804;2022-12-10T05:56:23;25.00;82.90
57576;DHT22;43412;-33.800;150.804;2022-12-10T05:58:51;24.90;83.40
57576;DHT22;43412;-33.800;150.804;2022-12-10T06:01:19;24.90;83.60
57576;DHT22;43412;-33.800;150.804;2022-12-10T06:03:46;25.00;83.40
57576;DHT22;43412;-33.800;150.804;2022-12-10T06:06:13;24.80;83.50
57576;DHT22;43412;-33.800;150.804;2022-12-10T06:08:40;24.60;83.70
57576;DHT22;43412;-33.800;150.804;2022-12-10T06:11:08;24.40;84.10
57576;DHT22;43412;-33.800;150.804;2022-12-10T06:13:35;24.20;84.10
57576;DHT22;43412;-33.800;150.804;2022-12-10T06:16:09;24.00;84.80
57576;DHT22;43412;-33.800;150.804;2022-12-10T06:18:36;23.80;85.20
57576;DHT22;43412;-33.800;150.804;2022-12-10T06:21:03;23.70;86.10
57576;DHT22;43412;-33.800;150.804;2022-12-10T06:23:30;23.70;85.80
57576;DHT22;43412;-33.800;150.804;2022-12-10T06:25:56;23.80;86.20
57576;DHT22;43412;-33.800;150.804;2022-12-10T06:28:23;23.70;86.20
57576;DHT22;43412;-33.800;150.804;2022-12-10T06:30:50;23.60;86.10
57576;DHT22;43412;-33.800;150.804;2022-12-10T06:33:16;23.60;86.50
57576;DHT22;43412;-33.800;150.804;2022-12-10T06:35:43;23.40;86.60
57576;DHT22;43412;-33.800;150.804;2022-12-10T06:38:10;23.40;86.70
57576;DHT22;43412;-33.800;150.804;2022-12-10T06:40:38;23.30;86.70
57576;DHT22;43412;-33.800;150.804;2022-12-10T06:43:06;23.50;87.30
57576;DHT22;43412;-33.800;150.804;2022-12-10T06:45:32;23.70;86.60
57576;DHT22;43412;-33.800;150.804;2022-12-10T06:47:59;23.70;86.00
57576;DHT22;43412;-33.800;150.804;2022-12-10T06:50:26;23.70;86.20
57576;DHT22;43412;-33.800;150.804;2022-12-10T06:52:53;23.70;86.40
57576;DHT22;43412;-33.800;150.804;2022-12-10T06:55:19;23.60;86.30
57576;DHT22;43412;-33.800;150.804;2022-12-10T06:57:46;23.50;86.50
57576;DHT22;43412;-33.800;150.804;2022-12-10T07:00:13;23.40;86.40
57576;DHT22;43412;-33.800;150.804;2022-12-10T07:02:40;23.30;86.70
57576;DHT22;43412;-33.800;150.804;2022-12-10T07:05:06;23.00;87.10
57576;DHT22;43412;-33.800;150.804;2022-12-10T07:07:34;22.70;87.90
57576;DHT22;43412;-33.800;150.804;2022-12-10T07:10:01;22.50;88.40
57576;DHT22;43412;-33.800;150.804;2022-12-10T07:12:28;22.50;88.70
57576;DHT22;43412;-33.800;150.804;2022-12-10T07:14:54;22.50;89.00
57576;DHT22;43412;-33.800;150.804;2022-12-10T07:17:21;22.40;89.20
57576;DHT22;43412;-33.800;150.804;2022-12-10T07:19:48;22.40;89.20
57576;DHT22;43412;-33.800;150.804;2022-12-10T07:22:14;22.40;89.40
57576;DHT22;43412;-33.800;150.804;2022-12-10T07:24:41;22.50;89.50
57576;DHT22;43412;-33.800;150.804;2022-12-10T07:27:08;22.50;89.60
57576;DHT22;43412;-33.800;150.804;2022-12-10T07:29:35;22.50;89.30
57576;DHT22;43412;-33.800;150.804;2022-12-10T07:32:01;22.40;89.50
57576;DHT22;43412;-33.800;150.804;2022-12-10T07:34:28;22.20;90.00
57576;DHT22;43412;-33.800;150.804;2022-12-10T07:36:55;22.10;90.10
57576;DHT22;43412;-33.800;150.804;2022-12-10T07:39:22;22.00;90.20
57576;DHT22;43412;-33.800;150.804;2022-12-10T07:41:49;21.90;90.30
57576;DHT22;43412;-33.800;150.804;2022-12-10T07:44:23;21.90;90.40
57576;DHT22;43412;-33.800;150.804;2022-12-10T07:46:51;21.70;90.50
57576;DHT22;43412;-33.800;150.804;2022-12-10T07:49:18;21.60;90.60
57576;DHT22;43412;-33.800;150.804;2022-12-10T07:51:45;21.60;90.80
57576;DHT22;43412;-33.800;150.804;2022-12-10T07:54:12;21.40;90.80
57576;DHT22;43412;-33.800;150.804;2022-12-10T07:56:39;21.40;91.00
57576;DHT22;43412;-33.800;150.804;2022-12-10T07:59:06;21.30;91.10
57576;DHT22;43412;-33.800;150.804;2022-12-10T08:01:32;21.20;91.20
57576;DHT22;43412;-33.800;150.804;2022-12-10T08:03:59;21.20;91.30
57576;DHT22;43412;-33.800;150.804;2022-12-10T08:06:27;21.10;91.40
57576;DHT22;43412;-33.800;150.804;2022-12-10T08:08:54;21.10;91.40
57576;DHT22;43412;-33.800;150.804;2022-12-10T08:11:21;21.10;91.50
57576;DHT22;43412;-33.800;150.804;2022-12-10T08:13:48;21.10;91.60
57576;DHT22;43412;-33.800;150.804;2022-12-10T08:16:18;21.10;91.70
57576;DHT22;43412;-33.800;150.804;2022-12-10T08:18:46;21.00;91.70
57576;DHT22;43412;-33.800;150.804;2022-12-10T08:21:13;20.90;91.70
57576;DHT22;43412;-33.800;150.804;2022-12-10T08:23:41;20.80;91.90
57576;DHT22;43412;-33.800;150.804;2022-12-10T08:26:09;20.70;92.00
57576;DHT22;43412;-33.800;150.804;2022-12-10T08:28:36;20.60;92.00
57576;DHT22;43412;-33.800;150.804;2022-12-10T08:31:03;20.50;92.20
57576;DHT22;43412;-33.800;150.804;2022-12-10T08:33:32;20.50;92.30
57576;DHT22;43412;-33.800;150.804;2022-12-10T08:36:00;20.50;92.40
57576;DHT22;43412;-33.800;150.804;2022-12-10T08:38:27;20.30;92.50
57576;DHT22;43412;-33.800;150.804;2022-12-10T08:40:54;20.30;92.60
57576;DHT22;43412;-33.800;150.804;2022-12-10T08:43:20;20.30;92.80
57576;DHT22;43412;-33.800;150.804;2022-12-10T08:45:47;20.30;92.60
57576;DHT22;43412;-33.800;150.804;2022-12-10T08:48:14;20.30;92.70
57576;DHT22;43412;-33.800;150.804;2022-12-10T08:50:40;20.20;92.60
57576;DHT22;43412;-33.800;150.804;2022-12-10T08:53:07;20.10;92.70
57576;DHT22;43412;-33.800;150.804;2022-12-10T08:55:37;20.10;92.80
57576;DHT22;43412;-33.800;150.804;2022-12-10T08:58:04;20.00;92.80
57576;DHT22;43412;-33.800;150.804;2022-12-10T09:00:31;19.90;92.90
57576;DHT22;43412;-33.800;150.804;2022-12-10T09:02:58;19.90;93.10
57576;DHT22;43412;-33.800;150.804;2022-12-10T09:05:24;19.80;93.20
57576;DHT22;43412;-33.800;150.804;2022-12-10T09:07:51;19.80;93.40
57576;DHT22;43412;-33.800;150.804;2022-12-10T09:10:18;19.70;93.70
57576;DHT22;43412;-33.800;150.804;2022-12-10T09:12:45;19.70;93.60
57576;DHT22;43412;-33.800;150.804;2022-12-10T09:15:11;19.60;93.70
57576;DHT22;43412;-33.800;150.804;2022-12-10T09:17:38;19.60;93.90
57576;DHT22;43412;-33.800;150.804;2022-12-10T09:20:05;19.50;93.90
57576;DHT22;43412;-33.800;150.804;2022-12-10T09:22:32;19.40;94.00
57576;DHT22;43412;-33.800;150.804;2022-12-10T09:25:05;19.40;94.10
57576;DHT22;43412;-33.800;150.804;2022-12-10T09:27:33;19.30;94.20
57576;DHT22;43412;-33.800;150.804;2022-12-10T09:29:59;19.30;94.10
57576;DHT22;43412;-33.800;150.804;2022-12-10T09:32:26;19.30;94.20
57576;DHT22;43412;-33.800;150.804;2022-12-10T09:34:53;19.20;94.30
57576;DHT22;43412;-33.800;150.804;2022-12-10T09:37:20;19.20;94.30
57576;DHT22;43412;-33.800;150.804;2022-12-10T09:39:46;19.20;94.30
57576;DHT22;43412;-33.800;150.804;2022-12-10T09:44:49;19.20;94.40
57576;DHT22;43412;-33.800;150.804;2022-12-10T09:47:17;19.20;94.40
57576;DHT22;43412;-33.800;150.804;2022-12-10T09:52:21;19.20;94.50
57576;DHT22;43412;-33.800;150.804;2022-12-10T09:54:55;19.20;94.30
57576;DHT22;43412;-33.800;150.804;2022-12-10T09:57:29;19.20;94.50
57576;DHT22;43412;-33.800;150.804;2022-12-10T09:59:59;19.20;94.60
57576;DHT22;43412;-33.800;150.804;2022-12-10T10:02:30;19.10;94.60
57576;DHT22;43412;-33.800;150.804;2022-12-10T10:05:05;19.10;94.70
57576;DHT22;43412;-33.800;150.804;2022-12-10T10:07:43;19.00;94.90
57576;DHT22;43412;-33.800;150.804;2022-12-10T10:12:46;19.00;95.00
57576;DHT22;43412;-33.800;150.804;2022-12-10T10:15:15;18.90;95.10
57576;DHT22;43412;-33.800;150.804;2022-12-10T10:17:42;18.80;95.10
57576;DHT22;43412;-33.800;150.804;2022-12-10T10:20:13;18.80;95.20
57576;DHT22;43412;-33.800;150.804;2022-12-10T10:22:40;18.80;95.20
57576;DHT22;43412;-33.800;150.804;2022-12-10T10:25:13;18.70;95.40
57576;DHT22;43412;-33.800;150.804;2022-12-10T10:27:41;18.70;95.60
57576;DHT22;43412;-33.800;150.804;2022-12-10T10:30:18;18.70;95.70
57576;DHT22;43412;-33.800;150.804;2022-12-10T10:32:47;18.70;95.50
57576;DHT22;43412;-33.800;150.804;2022-12-10T10:35:22;18.60;95.60
57576;DHT22;43412;-33.800;150.804;2022-12-10T10:37:49;18.60;95.70
57576;DHT22;43412;-33.800;150.804;2022-12-10T10:40:27;18.60;95.70
57576;DHT22;43412;-33.800;150.804;2022-12-10T10:42:55;18.60;95.70
57576;DHT22;43412;-33.800;150.804;2022-12-10T10:45:39;18.60;95.90
57576;DHT22;43412;-33.800;150.804;2022-12-10T10:48:10;18.60;95.90
57576;DHT22;43412;-33.800;150.804;2022-12-10T10:50:39;18.50;95.90
57576;DHT22;43412;-33.800;150.804;2022-12-10T10:55:48;18.40;96.30
57576;DHT22;43412;-33.800;150.804;2022-12-10T10:58:20;18.30;96.90
57576;DHT22;43412;-33.800;150.804;2022-12-10T11:00:54;18.30;96.70
57576;DHT22;43412;-33.800;150.804;2022-12-10T11:03:22;18.30;96.60
57576;DHT22;43412;-33.800;150.804;2022-12-10T11:05:48;18.20;96.80
57576;DHT22;43412;-33.800;150.804;2022-12-10T11:08:18;18.20;96.80
57576;DHT22;43412;-33.800;150.804;2022-12-10T11:10:50;18.10;97.00
57576;DHT22;43412;-33.800;150.804;2022-12-10T11:13:24;18.10;97.10
57576;DHT22;43412;-33.800;150.804;2022-12-10T11:15:56;18.10;97.20
57576;DHT22;43412;-33.800;150.804;2022-12-10T11:18:30;18.00;97.60
57576;DHT22;43412;-33.800;150.804;2022-12-10T11:21:15;18.00;97.60
57576;DHT22;43412;-33.800;150.804;2022-12-10T11:23:46;17.90;97.70
57576;DHT22;43412;-33.800;150.804;2022-12-10T11:34:09;17.70;98.10
57576;DHT22;43412;-33.800;150.804;2022-12-10T11:42:00;17.60;98.50
57576;DHT22;43412;-33.800;150.804;2022-12-10T11:47:43;17.50;98.80
57576;DHT22;43412;-33.800;150.804;2022-12-10T11:50:15;17.40;99.00
57576;DHT22;43412;-33.800;150.804;2022-12-10T11:52:53;17.30;99.10
57576;DHT22;43412;-33.800;150.804;2022-12-10T11:55:24;17.30;99.20
57576;DHT22;43412;-33.800;150.804;2022-12-10T12:00:59;17.20;99.30
57576;DHT22;43412;-33.800;150.804;2022-12-10T12:05:55;17.20;99.80
57576;DHT22;43412;-33.800;150.804;2022-12-10T12:08:32;17.10;99.80
57576;DHT22;43412;-33.800;150.804;2022-12-10T12:11:25;17.10;99.90
57576;DHT22;43412;-33.800;150.804;2022-12-10T12:16:23;16.90;99.90
57576;DHT22;43412;-33.800;150.804;2022-12-10T12:21:19;16.80;99.90
57576;DHT22;43412;-33.800;150.804;2022-12-10T12:26:24;16.80;99.90
57576;DHT22;43412;-33.800;150.804;2022-12-10T12:29:06;16.80;99.90
57576;DHT22;43412;-33.800;150.804;2022-12-10T12:31:35;16.80;99.90
57576;DHT22;43412;-33.800;150.804;2022-12-10T12:34:13;16.70;99.90
57576;DHT22;43412;-33.800;150.804;2022-12-10T12:36:42;16.70;99.90
57576;DHT22;43412;-33.800;150.804;2022-12-10T12:41:45;16.60;99.90
57576;DHT22;43412;-33.800;150.804;2022-12-10T12:46:48;16.60;99.90
57576;DHT22;43412;-33.800;150.804;2022-12-10T12:49:28;16.60;99.90
57576;DHT22;43412;-33.800;150.804;2022-12-10T12:54:23;16.50;99.90
57576;DHT22;43412;-33.800;150.804;2022-12-10T12:59:36;16.50;99.90
57576;DHT22;43412;-33.800;150.804;2022-12-10T13:04:42;16.40;99.90
57576;DHT22;43412;-33.800;150.804;2022-12-10T13:09:45;16.30;99.90
57576;DHT22;43412;-33.800;150.804;2022-12-10T13:17:33;16.20;99.90
57576;DHT22;43412;-33.800;150.804;2022-12-10T13:20:44;16.20;99.90
57576;DHT22;43412;-33.800;150.804;2022-12-10T13:23:34;16.20;99.90
57576;DHT22;43412;-33.800;150.804;2022-12-10T13:25:40;16.10;99.90
57576;DHT22;43412;-33.800;150.804;2022-12-10T13:28:20;16.00;99.90
57576;DHT22;43412;-33.800;150.804;2022-12-10T13:36:27;15.90;99.90
57576;DHT22;43412;-33.800;150.804;2022-12-10T13:39:20;15.90;99.90
57576;DHT22;43412;-33.800;150.804;2022-12-10T13:44:47;15.90;99.90
57576;DHT22;43412;-33.800;150.804;2022-12-10T13:47:24;15.80;99.90
57576;DHT22;43412;-33.800;150.804;2022-12-10T13:49:53;15.70;99.90
57576;DHT22;43412;-33.800;150.804;2022-12-10T13:52:31;15.70;99.90
57576;DHT22;43412;-33.800;150.804;2022-12-10T13:57:43;15.70;99.90
57576;DHT22;43412;-33.800;150.804;2022-12-10T14:08:03;15.50;99.90
57576;DHT22;43412;-33.800;150.804;2022-12-10T14:10:33;15.50;99.90
57576;DHT22;43412;-33.800;150.804;2022-12-10T14:13:04;15.50;99.90
57576;DHT22;43412;-33.800;150.804;2022-12-10T14:15:31;15.60;99.90
57576;DHT22;43412;-33.800;150.804;2022-12-10T14:18:19;15.60;99.90
57576;DHT22;43412;-33.800;150.804;2022-12-10T14:20:47;15.60;99.90
57576;DHT22;43412;-33.800;150.804;2022-12-10T14:23:30;15.60;99.90
57576;DHT22;43412;-33.800;150.804;2022-12-10T14:28:31;15.50;99.90
57576;DHT22;43412;-33.800;150.804;2022-12-10T14:30:59;15.40;99.90
57576;DHT22;43412;-33.800;150.804;2022-12-10T14:33:26;15.30;99.90
57576;DHT22;43412;-33.800;150.804;2022-12-10T14:35:53;15.30;99.90
57576;DHT22;43412;-33.800;150.804;2022-12-10T14:38:21;15.30;99.90
57576;DHT22;43412;-33.800;150.804;2022-12-10T14:40:48;15.20;99.90
57576;DHT22;43412;-33.800;150.804;2022-12-10T14:43:18;15.20;99.90
57576;DHT22;43412;-33.800;150.804;2022-12-10T14:48:19;15.20;99.90
57576;DHT22;43412;-33.800;150.804;2022-12-10T14:50:46;15.10;99.90
57576;DHT22;43412;-33.800;150.804;2022-12-10T14:53:14;15.10;99.90
57576;DHT22;43412;-33.800;150.804;2022-12-10T14:55:42;15.10;99.90
57576;DHT22;43412;-33.800;150.804;2022-12-10T14:58:10;15.00;99.90
57576;DHT22;43412;-33.800;150.804;2022-12-10T15:00:40;15.00;99.90
57576;DHT22;43412;-33.800;150.804;2022-12-10T15:03:08;15.00;99.90
57576;DHT22;43412;-33.800;150.804;2022-12-10T15:05:36;15.00;99.90
57576;DHT22;43412;-33.800;150.804;2022-12-10T15:08:04;14.90;99.90
57576;DHT22;43412;-33.800;150.804;2022-12-10T15:13:01;14.90;99.90
57576;DHT22;43412;-33.800;150.804;2022-12-10T15:15:30;14.80;99.90
57576;DHT22;43412;-33.800;150.804;2022-12-10T15:20:25;14.80;99.90
57576;DHT22;43412;-33.800;150.804;2022-12-10T15:22:53;14.70;99.90
57576;DHT22;43412;-33.800;150.804;2022-12-10T15:25:25;14.70;99.90
57576;DHT22;43412;-33.800;150.804;2022-12-10T15:27:57;14.70;99.90
57576;DHT22;43412;-33.800;150.804;2022-12-10T15:30:32;14.70;99.90
57576;DHT22;43412;-33.800;150.804;2022-12-10T15:32:59;14.60;99.90
57576;DHT22;43412;-33.800;150.804;2022-12-10T15:35:26;14.60;99.90
57576;DHT22;43412;-33.800;150.804;2022-12-10T15:37:53;14.60;99.90
57576;DHT22;43412;-33.800;150.804;2022-12-10T15:40:23;14.60;99.90
57576;DHT22;43412;-33.800;150.804;2022-12-10T15:42:50;14.60;99.90
57576;DHT22;43412;-33.800;150.804;2022-12-10T15:45:24;14.60;99.90
57576;DHT22;43412;-33.800;150.804;2022-12-10T15:47:57;14.60;99.90
57576;DHT22;43412;-33.800;150.804;2022-12-10T15:50:24;14.60;99.90
57576;DHT22;43412;-33.800;150.804;2022-12-10T15:52:51;14.60;99.90
57576;DHT22;43412;-33.800;150.804;2022-12-10T15:55:18;14.50;99.90
57576;DHT22;43412;-33.800;150.804;2022-12-10T15:57:45;14.50;99.90
57576;DHT22;43412;-33.800;150.804;2022-12-10T16:00:19;14.50;99.90
57576;DHT22;43412;-33.800;150.804;2022-12-10T16:02:47;14.50;99.90
57576;DHT22;43412;-33.800;150.804;2022-12-10T16:05:31;14.50;99.90
57576;DHT22;43412;-33.800;150.804;2022-12-10T16:07:59;14.50;99.90
57576;DHT22;43412;-33.800;150.804;2022-12-10T16:10:26;14.50;99.90
57576;DHT22;43412;-33.800;150.804;2022-12-10T16:12:57;14.40;99.90
57576;DHT22;43412;-33.800;150.804;2022-12-10T16:15:25;14.40;99.90
57576;DHT22;43412;-33.800;150.804;2022-12-10T16:17:53;14.40;99.90
57576;DHT22;43412;-33.800;150.804;2022-12-10T16:20:26;14.30;99.90
57576;DHT22;43412;-33.800;150.804;2022-12-10T16:22:54;14.30;99.90
57576;DHT22;43412;-33.800;150.804;2022-12-10T16:25:22;14.40;99.90
57576;DHT22;43412;-33.800;150.804;2022-12-10T16:27:49;14.30;99.90
57576;DHT22;43412;-33.800;150.804;2022-12-10T16:32:42;14.30;99.90
57576;DHT22;43412;-33.800;150.804;2022-12-10T16:35:09;14.30;99.90
57576;DHT22;43412;-33.800;150.804;2022-12-10T16:37:46;14.40;99.90
57576;DHT22;43412;-33.800;150.804;2022-12-10T16:40:15;14.40;99.90
57576;DHT22;43412;-33.800;150.804;2022-12-10T16:42:41;14.30;99.90
57576;DHT22;43412;-33.800;150.804;2022-12-10T16:45:12;14.40;99.90
57576;DHT22;43412;-33.800;150.804;2022-12-10T16:47:39;14.30;99.90